sensor_id;sensor_type;location;lat;lon;timestamp;pressure;altitude;pressure_sealevel;temperature;humidity
13604;BME280;24578;48.264;11.436;2023-03-01T00:01:07;96732.03;;;0.61;100.00
13604;BME280;24578;48.264;11.436;2023-03-01T00:04:08;96725.34;;;0.55;100.00
13604;BME280;24578;48.264;11.436;2023-03-01T00:07:09;96729.88;;;0.44;100.00
13604;BME280;24578;48.264;11.436;2023-03-01T00:10:10;96730.38;;;0.58;100.00
13604;BME280;24578;48.264;11.436;2023-03-01T00:13:11;96726.13;;;0.59;100.00
13604;BME280;24578;48.264;11.436;2023-03-01T00:16:16;96733.97;;;0.51;100.00
13604;BME280;24578;48.264;11.436;2023-03-01T00:19:18;96728.63;;;0.60;100.00
13604;BME280;24578;48.264;11.436;2023-03-01T00:22:19;96716.03;;;0.56;100.00
13604;BME280;24578;48.264;11.436;2023-03-01T00:25:19;96721.31;;;0.48;100.00
13604;BME280;24578;48.264;11.436;2023-03-01T00:28:20;96722.16;;;0.47;100.00
13604;BME280;24578;48.264;11.436;2023-03-01T00:31:24;96720.34;;;0.52;100.00
13604;BME280;24578;48.264;11.436;2023-03-01T00:34:25;96715.06;;;0.60;100.00
13604;BME280;24578;48.264;11.436;2023-03-01T00:37:27;96698.38;;;0.48;100.00
13604;BME280;24578;48.264;11.436;2023-03-01T00:40:29;96707.63;;;0.52;100.00
13604;BME280;24578;48.264;11.436;2023-03-01T00:43:30;96707.63;;;0.52;100.00
13604;BME280;24578;48.264;11.436;2023-03-01T00:46:32;96708.38;;;0.56;100.00
13604;BME280;24578;48.264;11.436;2023-03-01T00:49:34;96705.97;;;0.50;100.00
13604;BME280;24578;48.264;11.436;2023-03-01T00:52:34;96700.19;;;0.43;100.00
13604;BME280;24578;48.264;11.436;2023-03-01T00:55:36;96706.19;;;0.40;100.00
13604;BME280;24578;48.264;11.436;2023-03-01T00:58:37;96702.03;;;0.38;100.00
13604;BME280;24578;48.264;11.436;2023-03-01T01:01:37;96688.41;;;0.39;100.00
13604;BME280;24578;48.264;11.436;2023-03-01T01:04:38;96692.34;;;0.51;100.00
13604;BME280;24578;48.264;11.436;2023-03-01T01:07:39;96690.91;;;0.40;100.00
13604;BME280;24578;48.264;11.436;2023-03-01T01:10:39;96681.41;;;0.47;100.00
13604;BME280;24578;48.264;11.436;2023-03-01T01:13:41;96675.69;;;0.39;100.00
13604;BME280;24578;48.264;11.436;2023-03-01T01:16:42;96672.66;;;0.23;100.00
13604;BME280;24578;48.264;11.436;2023-03-01T01:19:42;96665.53;;;0.37;100.00
13604;BME280;24578;48.264;11.436;2023-03-01T01:22:43;96670.50;;;0.42;100.00
13604;BME280;24578;48.264;11.436;2023-03-01T01:25:44;96649.44;;;0.35;100.00
13604;BME280;24578;48.264;11.436;2023-03-01T01:28:45;96657.75;;;0.42;100.00
13604;BME280;24578;48.264;11.436;2023-03-01T01:31:46;96659.47;;;0.41;100.00
13604;BME280;24578;48.264;11.436;2023-03-01T01:34:47;96641.91;;;0.30;100.00
13604;BME280;24578;48.264;11.436;2023-03-01T01:37:47;96653.72;;;0.35;100.00
13604;BME280;24578;48.264;11.436;2023-03-01T01:40:50;96647.50;;;0.45;100.00
13604;BME280;24578;48.264;11.436;2023-03-01T01:44:13;96650.91;;;0.44;100.00
13604;BME280;24578;48.264;11.436;2023-03-01T01:47:14;96654.47;;;0.38;100.00
13604;BME280;24578;48.264;11.436;2023-03-01T01:50:18;96652.78;;;0.37;100.00
13604;BME280;24578;48.264;11.436;2023-03-01T01:53:19;96653.47;;;0.44;100.00
13604;BME280;24578;48.264;11.436;2023-03-01T01:56:24;96647.56;;;0.42;100.00
13604;BME280;24578;48.264;11.436;2023-03-01T01:59:26;96646.06;;;0.35;100.00
13604;BME280;24578;48.264;11.436;2023-03-01T02:02:27;96649.81;;;0.20;100.00
13604;BME280;24578;48.264;11.436;2023-03-01T02:05:43;96642.22;;;0.18;100.00
13604;BME280;24578;48.264;11.436;2023-03-01T02:08:48;96637.56;;;0.36;100.00
13604;BME280;24578;48.264;11.436;2023-03-01T02:11:51;96635.91;;;0.33;100.00
13604;BME280;24578;48.264;11.436;2023-03-01T02:14:52;96638.63;;;0.25;100.00
13604;BME280;24578;48.264;11.436;2023-03-01T02:17:54;96630.09;;;0.28;100.00
13604;BME280;24578;48.264;11.436;2023-03-01T02:24:42;96635.91;;;0.33;100.00
13604;BME280;24578;48.264;11.436;2023-03-01T02:28:08;96636.88;;;0.27;100.00
13604;BME280;24578;48.264;11.436;2023-03-01T02:31:16;96607.13;;;0.31;100.00
13604;BME280;24578;48.264;11.436;2023-03-01T02:34:35;96626.50;;;0.37;100.00
13604;BME280;24578;48.264;11.436;2023-03-01T02:37:36;96618.06;;;0.33;100.00
13604;BME280;24578;48.264;11.436;2023-03-01T02:40:37;96609.91;;;0.20;100.00
13604;BME280;24578;48.264;11.436;2023-03-01T02:43:40;96612.41;;;0.23;100.00
13604;BME280;24578;48.264;11.436;2023-03-01T02:46:47;96613.91;;;0.30;100.00
13604;BME280;24578;48.264;11.436;2023-03-01T02:49:48;96613.06;;;0.30;100.00
13604;BME280;24578;48.264;11.436;2023-03-01T02:52:58;96613.03;;;0.32;100.00
13604;BME280;24578;48.264;11.436;2023-03-01T02:56:02;96613.16;;;0.27;100.00
13604;BME280;24578;48.264;11.436;2023-03-01T02:59:03;96620.72;;;0.30;100.00
13604;BME280;24578;48.264;11.436;2023-03-01T03:02:08;96611.41;;;0.29;100.00
13604;BME280;24578;48.264;11.436;2023-03-01T03:05:23;96607.25;;;0.25;100.00
13604;BME280;24578;48.264;11.436;2023-03-01T03:08:24;96616.31;;;0.35;100.00
13604;BME280;24578;48.264;11.436;2023-03-01T03:11:25;96604.78;;;0.22;100.00
13604;BME280;24578;48.264;11.436;2023-03-01T03:14:26;96604.78;;;0.22;100.00
13604;BME280;24578;48.264;11.436;2023-03-01T03:17:26;96615.13;;;0.16;100.00
13604;BME280;24578;48.264;11.436;2023-03-01T03:20:28;96608.28;;;0.18;100.00
13604;BME280;24578;48.264;11.436;2023-03-01T03:23:28;96605.78;;;0.16;100.00
13604;BME280;24578;48.264;11.436;2023-03-01T03:26:30;96610.06;;;0.14;100.00
13604;BME280;24578;48.264;11.436;2023-03-01T03:29:31;96607.31;;;0.22;100.00
13604;BME280;24578;48.264;11.436;2023-03-01T03:32:31;96607.50;;;0.14;100.00
13604;BME280;24578;48.264;11.436;2023-03-01T03:35:38;96606.84;;;0.07;100.00
13604;BME280;24578;48.264;11.436;2023-03-01T03:38:39;96604.34;;;0.04;100.00
13604;BME280;24578;48.264;11.436;2023-03-01T03:41:40;96597.78;;;-0.05;100.00
13604;BME280;24578;48.264;11.436;2023-03-01T03:44:40;96588.22;;;0.05;100.00
13604;BME280;24578;48.264;11.436;2023-03-01T03:47:41;96590.88;;;0.01;100.00
13604;BME280;24578;48.264;11.436;2023-03-01T03:50:48;96604.41;;;0.03;100.00
13604;BME280;24578;48.264;11.436;2023-03-01T03:53:49;96597.53;;;0.06;100.00
13604;BME280;24578;48.264;11.436;2023-03-01T03:56:50;96591.81;;;-0.02;100.00
13604;BME280;24578;48.264;11.436;2023-03-01T03:59:50;96582.56;;;-0.08;100.00
13604;BME280;24578;48.264;11.436;2023-03-01T04:02:51;96585.47;;;-0.23;100.00
13604;BME280;24578;48.264;11.436;2023-03-01T04:05:52;96574.53;;;-0.25;100.00
13604;BME280;24578;48.264;11.436;2023-03-01T04:08:53;96571.25;;;-0.31;100.00
13604;BME280;24578;48.264;11.436;2023-03-01T04:12:00;96576.41;;;-0.34;100.00
13604;BME280;24578;48.264;11.436;2023-03-01T04:15:02;96572.16;;;-0.33;100.00
13604;BME280;24578;48.264;11.436;2023-03-01T04:18:14;96571.06;;;-0.23;100.00
13604;BME280;24578;48.264;11.436;2023-03-01T04:21:15;96573.69;;;-0.26;100.00
13604;BME280;24578;48.264;11.436;2023-03-01T04:24:16;96573.13;;;-0.39;100.00
13604;BME280;24578;48.264;11.436;2023-03-01T04:27:16;96580.25;;;-0.53;100.00
13604;BME280;24578;48.264;11.436;2023-03-01T04:30:17;96575.97;;;-0.51;100.00
13604;BME280;24578;48.264;11.436;2023-03-01T04:33:19;96577.47;;;-0.42;100.00
13604;BME280;24578;48.264;11.436;2023-03-01T04:36:23;96582.94;;;-0.61;100.00
13604;BME280;24578;48.264;11.436;2023-03-01T04:39:24;96577.34;;;-0.75;100.00
13604;BME280;24578;48.264;11.436;2023-03-01T04:42:25;96571.59;;;-0.84;100.00
13604;BME280;24578;48.264;11.436;2023-03-01T04:45:25;96584.72;;;-1.04;100.00
13604;BME280;24578;48.264;11.436;2023-03-01T04:48:26;96581.34;;;-1.04;100.00
13604;BME280;24578;48.264;11.436;2023-03-01T04:51:26;96580.25;;;-1.35;100.00
13604;BME280;24578;48.264;11.436;2023-03-01T04:54:27;96575.44;;;-1.49;100.00
13604;BME280;24578;48.264;11.436;2023-03-01T04:57:28;96573.59;;;-1.42;100.00
13604;BME280;24578;48.264;11.436;2023-03-01T05:00:28;96578.81;;;-1.48;100.00
13604;BME280;24578;48.264;11.436;2023-03-01T05:03:30;96580.75;;;-1.61;100.00
13604;BME280;24578;48.264;11.436;2023-03-01T05:06:31;96564.16;;;-1.79;100.00
13604;BME280;24578;48.264;11.436;2023-03-01T05:09:31;96576.06;;;-1.85;100.00
13604;BME280;24578;48.264;11.436;2023-03-01T05:12:32;96554.22;;;-1.93;100.00
13604;BME280;24578;48.264;11.436;2023-03-01T05:15:32;96556.84;;;-1.98;100.00
13604;BME280;24578;48.264;11.436;2023-03-01T05:18:33;96559.31;;;-1.93;100.00
13604;BME280;24578;48.264;11.436;2023-03-01T05:21:35;96565.19;;;-1.91;100.00
13604;BME280;24578;48.264;11.436;2023-03-01T05:24:55;96558.59;;;-2.02;100.00
13604;BME280;24578;48.264;11.436;2023-03-01T05:27:56;96551.22;;;-2.16;100.00
13604;BME280;24578;48.264;11.436;2023-03-01T05:30:57;96570.50;;;-2.04;100.00
13604;BME280;24578;48.264;11.436;2023-03-01T05:33:58;96553.63;;;-2.08;100.00
13604;BME280;24578;48.264;11.436;2023-03-01T05:36:58;96562.94;;;-2.08;100.00
13604;BME280;24578;48.264;11.436;2023-03-01T05:39:59;96566.50;;;-2.19;100.00
13604;BME280;24578;48.264;11.436;2023-03-01T05:43:00;96563.00;;;-2.11;100.00
13604;BME280;24578;48.264;11.436;2023-03-01T05:46:02;96566.50;;;-2.19;100.00
13604;BME280;24578;48.264;11.436;2023-03-01T05:49:02;96567.94;;;-2.04;100.00
13604;BME280;24578;48.264;11.436;2023-03-01T05:52:04;96565.34;;;-1.99;100.00
13604;BME280;24578;48.264;11.436;2023-03-01T05:55:05;96568.56;;;-1.89;100.00
13604;BME280;24578;48.264;11.436;2023-03-01T05:58:10;96562.53;;;-1.85;100.00
13604;BME280;24578;48.264;11.436;2023-03-01T06:01:12;96557.31;;;-1.76;100.00
13604;BME280;24578;48.264;11.436;2023-03-01T06:04:13;96555.66;;;-1.78;100.00
13604;BME280;24578;48.264;11.436;2023-03-01T06:07:14;96549.47;;;-1.63;100.00
13604;BME280;24578;48.264;11.436;2023-03-01T06:10:14;96553.44;;;-1.48;100.00
13604;BME280;24578;48.264;11.436;2023-03-01T06:13:15;96561.78;;;-1.43;100.00
13604;BME280;24578;48.264;11.436;2023-03-01T06:16:15;96559.44;;;-1.54;100.00
13604;BME280;24578;48.264;11.436;2023-03-01T06:19:16;96562.53;;;-1.40;100.00
13604;BME280;24578;48.264;11.436;2023-03-01T06:22:17;96569.22;;;-1.34;100.00
13604;BME280;24578;48.264;11.436;2023-03-01T06:25:20;96571.47;;;-1.20;100.00
13604;BME280;24578;48.264;11.436;2023-03-01T06:28:21;96563.00;;;-1.19;100.00
13604;BME280;24578;48.264;11.436;2023-03-01T06:31:22;96573.41;;;-1.31;100.00
13604;BME280;24578;48.264;11.436;2023-03-01T06:34:22;96580.69;;;-1.14;100.00
13604;BME280;24578;48.264;11.436;2023-03-01T06:37:23;96584.28;;;-1.25;100.00
13604;BME280;24578;48.264;11.436;2023-03-01T06:40:24;96579.72;;;-1.09;100.00
13604;BME280;24578;48.264;11.436;2023-03-01T06:43:24;96575.44;;;-1.07;100.00
13604;BME280;24578;48.264;11.436;2023-03-01T06:46:25;96578.63;;;-0.97;100.00
13604;BME280;24578;48.264;11.436;2023-03-01T06:49:26;96576.25;;;-1.03;100.00
13604;BME280;24578;48.264;11.436;2023-03-01T06:52:26;96583.78;;;-1.00;100.00
13604;BME280;24578;48.264;11.436;2023-03-01T06:55:27;96576.94;;;-0.96;100.00
13604;BME280;24578;48.264;11.436;2023-03-01T06:58:28;96570.84;;;-0.87;100.00
13604;BME280;24578;48.264;11.436;2023-03-01T07:01:29;96560.75;;;-0.92;100.00
13604;BME280;24578;48.264;11.436;2023-03-01T07:04:30;96571.75;;;-0.92;100.00
13604;BME280;24578;48.264;11.436;2023-03-01T07:07:31;96576.03;;;-0.94;100.00
13604;BME280;24578;48.264;11.436;2023-03-01T07:10:31;96562.94;;;-0.75;100.00
13604;BME280;24578;48.264;11.436;2023-03-01T07:13:32;96571.59;;;-0.84;100.00
13604;BME280;24578;48.264;11.436;2023-03-01T07:16:33;96561.28;;;-0.78;100.00
13604;BME280;24578;48.264;11.436;2023-03-01T07:19:33;96569.53;;;-0.66;100.00
13604;BME280;24578;48.264;11.436;2023-03-01T07:22:34;96558.50;;;-0.67;100.00
13604;BME280;24578;48.264;11.436;2023-03-01T07:25:35;96559.72;;;-0.46;100.00
13604;BME280;24578;48.264;11.436;2023-03-01T07:28:36;96557.41;;;-0.55;100.00
13604;BME280;24578;48.264;11.436;2023-03-01T07:31:38;96551.19;;;-0.43;100.00
13604;BME280;24578;48.264;11.436;2023-03-01T07:34:39;96545.75;;;-0.27;100.00
13604;BME280;24578;48.264;11.436;2023-03-01T07:37:40;96540.78;;;-0.34;100.00
13604;BME280;24578;48.264;11.436;2023-03-01T07:40:40;96528.13;;;-0.35;100.00
13604;BME280;24578;48.264;11.436;2023-03-01T07:43:41;96540.50;;;-0.21;100.00
13604;BME280;24578;48.264;11.436;2023-03-01T07:46:41;96530.91;;;-0.10;100.00
13604;BME280;24578;48.264;11.436;2023-03-01T07:49:42;96532.47;;;-0.06;100.00
13604;BME280;24578;48.264;11.436;2023-03-01T07:52:45;96542.38;;;0.07;100.00
13604;BME280;24578;48.264;11.436;2023-03-01T07:55:45;96544.53;;;0.22;100.00
13604;BME280;24578;48.264;11.436;2023-03-01T07:58:46;96536.91;;;0.21;100.00
13604;BME280;24578;48.264;11.436;2023-03-01T08:01:46;96538.16;;;0.39;100.00
13604;BME280;24578;48.264;11.436;2023-03-01T08:04:47;96541.03;;;0.58;100.00
13604;BME280;24578;48.264;11.436;2023-03-01T08:07:48;96530.41;;;0.42;100.00
13604;BME280;24578;48.264;11.436;2023-03-01T08:10:48;96531.41;;;0.68;100.00
13604;BME280;24578;48.264;11.436;2023-03-01T08:13:49;96522.25;;;0.90;100.00
13604;BME280;24578;48.264;11.436;2023-03-01T08:16:49;96521.88;;;1.03;100.00
13604;BME280;24578;48.264;11.436;2023-03-01T08:19:50;96529.22;;;1.14;98.64
13604;BME280;24578;48.264;11.436;2023-03-01T08:22:50;96521.00;;;1.04;98.74
13604;BME280;24578;48.264;11.436;2023-03-01T08:25:51;96526.81;;;1.09;99.19
13604;BME280;24578;48.264;11.436;2023-03-01T08:28:53;96522.84;;;1.29;96.09
13604;BME280;24578;48.264;11.436;2023-03-01T08:31:53;96525.66;;;1.19;96.31
13604;BME280;24578;48.264;11.436;2023-03-01T08:34:54;96524.09;;;1.15;95.88
13604;BME280;24578;48.264;11.436;2023-03-01T08:37:54;96519.25;;;1.34;96.39
13604;BME280;24578;48.264;11.436;2023-03-01T08:40:55;96518.00;;;1.48;94.72
13604;BME280;24578;48.264;11.436;2023-03-01T08:43:59;96505.97;;;1.51;93.46
13604;BME280;24578;48.264;11.436;2023-03-01T08:47:00;96520.22;;;1.59;93.10
13604;BME280;24578;48.264;11.436;2023-03-01T08:50:00;96524.22;;;1.39;94.08
13604;BME280;24578;48.264;11.436;2023-03-01T08:53:01;96505.72;;;1.59;92.52
13604;BME280;24578;48.264;11.436;2023-03-01T08:56:01;96507.25;;;1.92;90.75
13604;BME280;24578;48.264;11.436;2023-03-01T08:59:03;96503.75;;;2.20;90.06
13604;BME280;24578;48.264;11.436;2023-03-01T09:02:05;96502.09;;;2.42;87.14
13604;BME280;24578;48.264;11.436;2023-03-01T09:05:06;96488.97;;;2.76;86.09
13604;BME280;24578;48.264;11.436;2023-03-01T09:08:07;96494.19;;;2.96;83.86
13604;BME280;24578;48.264;11.436;2023-03-01T09:11:11;96493.09;;;3.26;81.96
13604;BME280;24578;48.264;11.436;2023-03-01T09:14:13;96487.78;;;3.30;79.54
13604;BME280;24578;48.264;11.436;2023-03-01T09:17:14;96497.47;;;3.22;80.47
13604;BME280;24578;48.264;11.436;2023-03-01T09:20:15;96489.28;;;3.14;82.37
13604;BME280;24578;48.264;11.436;2023-03-01T09:23:15;96496.78;;;3.18;80.86
13604;BME280;24578;48.264;11.436;2023-03-01T09:26:19;96506.19;;;2.94;83.50
13604;BME280;24578;48.264;11.436;2023-03-01T09:29:22;96496.53;;;3.02;84.10
13604;BME280;24578;48.264;11.436;2023-03-01T09:32:22;96501.28;;;3.12;83.35
13604;BME280;24578;48.264;11.436;2023-03-01T09:35:23;96492.13;;;3.06;84.91
13604;BME280;24578;48.264;11.436;2023-03-01T09:38:24;96496.88;;;2.93;85.31
13604;BME280;24578;48.264;11.436;2023-03-01T09:47:45;96483.25;;;2.93;85.08
13604;BME280;24578;48.264;11.436;2023-03-01T09:50:46;96480.44;;;2.77;84.44
13604;BME280;24578;48.264;11.436;2023-03-01T09:53:47;96488.09;;;3.00;84.11
13604;BME280;24578;48.264;11.436;2023-03-01T09:57:11;96482.69;;;3.30;82.38
13604;BME280;24578;48.264;11.436;2023-03-01T10:00:47;96480.44;;;3.65;80.08
13604;BME280;24578;48.264;11.436;2023-03-01T10:10:33;96457.84;;;3.96;73.86
13604;BME280;24578;48.264;11.436;2023-03-01T10:20:17;96433.94;;;8.64;49.22
13604;BME280;24578;48.264;11.436;2023-03-01T10:23:18;96423.28;;;9.66;44.23
13604;BME280;24578;48.264;11.436;2023-03-01T10:33:17;96418.16;;;10.56;39.55
13604;BME280;24578;48.264;11.436;2023-03-01T10:36:20;96415.00;;;10.77;39.77
13604;BME280;24578;48.264;11.436;2023-03-01T10:39:23;96405.69;;;11.47;38.11
13604;BME280;24578;48.264;11.436;2023-03-01T10:42:33;96397.19;;;11.81;36.31
13604;BME280;24578;48.264;11.436;2023-03-01T10:45:39;96402.97;;;11.73;37.85
13604;BME280;24578;48.264;11.436;2023-03-01T10:48:40;96406.38;;;12.32;36.78
13604;BME280;24578;48.264;11.436;2023-03-01T10:51:43;96404.81;;;12.75;35.47
13604;BME280;24578;48.264;11.436;2023-03-01T10:54:58;96380.88;;;12.48;35.36
13604;BME280;24578;48.264;11.436;2023-03-01T10:58:21;96389.06;;;12.99;34.94
13604;BME280;24578;48.264;11.436;2023-03-01T11:04:22;96372.13;;;12.38;35.46
13604;BME280;24578;48.264;11.436;2023-03-01T11:07:23;96368.84;;;12.02;36.37
13604;BME280;24578;48.264;11.436;2023-03-01T11:10:33;96346.91;;;12.95;35.46
13604;BME280;24578;48.264;11.436;2023-03-01T11:13:34;96344.19;;;12.97;34.02
13604;BME280;24578;48.264;11.436;2023-03-01T11:16:38;96339.78;;;12.65;35.22
13604;BME280;24578;48.264;11.436;2023-03-01T11:19:39;96340.31;;;12.36;34.92
13604;BME280;24578;48.264;11.436;2023-03-01T11:23:13;96328.28;;;12.35;36.03
13604;BME280;24578;48.264;11.436;2023-03-01T11:26:17;96332.38;;;12.60;35.62
13604;BME280;24578;48.264;11.436;2023-03-01T11:29:27;96324.97;;;12.22;35.62
13604;BME280;24578;48.264;11.436;2023-03-01T11:32:41;96311.28;;;12.31;36.58
13604;BME280;24578;48.264;11.436;2023-03-01T11:35:58;96311.31;;;12.63;35.80
13604;BME280;24578;48.264;11.436;2023-03-01T11:39:12;96313.63;;;12.89;35.45
13604;BME280;24578;48.264;11.436;2023-03-01T11:42:54;96305.97;;;12.21;36.02
13604;BME280;24578;48.264;11.436;2023-03-01T11:49:28;96297.44;;;11.51;37.38
13604;BME280;24578;48.264;11.436;2023-03-01T11:56:15;96276.16;;;12.04;37.66
13604;BME280;24578;48.264;11.436;2023-03-01T12:00:00;96279.19;;;11.98;38.62
13604;BME280;24578;48.264;11.436;2023-03-01T12:03:30;96267.88;;;11.65;38.59
13604;BME280;24578;48.264;11.436;2023-03-01T12:10:26;96263.63;;;11.98;38.50
13604;BME280;24578;48.264;11.436;2023-03-01T12:30:42;96248.91;;;10.94;41.55
13604;BME280;24578;48.264;11.436;2023-03-01T12:37:22;96243.38;;;10.99;40.97
13604;BME280;24578;48.264;11.436;2023-03-01T12:40:42;96245.41;;;11.07;40.88
13604;BME280;24578;48.264;11.436;2023-03-01T12:44:04;96240.03;;;10.86;42.18
13604;BME280;24578;48.264;11.436;2023-03-01T12:50:46;96220.25;;;10.49;41.99
13604;BME280;24578;48.264;11.436;2023-03-01T12:53:50;96219.34;;;10.61;42.55
13604;BME280;24578;48.264;11.436;2023-03-01T12:56:51;96225.47;;;10.23;42.93
13604;BME280;24578;48.264;11.436;2023-03-01T13:04:12;96238.75;;;10.18;43.52
13604;BME280;24578;48.264;11.436;2023-03-01T13:13:35;96232.38;;;9.48;45.84
13604;BME280;24578;48.264;11.436;2023-03-01T13:16:41;96232.56;;;9.32;46.20
13604;BME280;24578;48.264;11.436;2023-03-01T13:19:57;96238.97;;;9.26;46.26
13604;BME280;24578;48.264;11.436;2023-03-01T13:26:15;96246.81;;;9.12;47.13
13604;BME280;24578;48.264;11.436;2023-03-01T13:29:26;96238.16;;;9.52;46.71
13604;BME280;24578;48.264;11.436;2023-03-01T13:32:29;96239.06;;;9.51;46.96
13604;BME280;24578;48.264;11.436;2023-03-01T13:35:43;96240.16;;;9.85;45.11
13604;BME280;24578;48.264;11.436;2023-03-01T13:38:47;96240.41;;;9.69;46.03
13604;BME280;24578;48.264;11.436;2023-03-01T13:41:58;96240.22;;;9.59;46.35
13604;BME280;24578;48.264;11.436;2023-03-01T13:45:00;96232.94;;;9.00;48.36
13604;BME280;24578;48.264;11.436;2023-03-01T13:48:14;96217.22;;;9.68;46.65
13604;BME280;24578;48.264;11.436;2023-03-01T13:51:23;96200.25;;;9.89;46.30
13604;BME280;24578;48.264;11.436;2023-03-01T13:54:30;96202.97;;;10.36;44.73
13604;BME280;24578;48.264;11.436;2023-03-01T13:57:35;96208.97;;;10.37;44.94
13604;BME280;24578;48.264;11.436;2023-03-01T14:00:39;96208.25;;;10.35;44.47
13604;BME280;24578;48.264;11.436;2023-03-01T14:03:41;96209.09;;;10.11;45.42
13604;BME280;24578;48.264;11.436;2023-03-01T14:06:42;96202.09;;;10.25;44.90
13604;BME280;24578;48.264;11.436;2023-03-01T14:09:45;96206.41;;;10.00;45.49
13604;BME280;24578;48.264;11.436;2023-03-01T14:12:58;96207.41;;;9.86;46.66
13604;BME280;24578;48.264;11.436;2023-03-01T14:19:27;96202.84;;;9.77;46.98
13604;BME280;24578;48.264;11.436;2023-03-01T14:22:36;96190.84;;;9.75;48.29
13604;BME280;24578;48.264;11.436;2023-03-01T14:25:38;96187.97;;;9.80;47.30
13604;BME280;24578;48.264;11.436;2023-03-01T14:28:48;96185.13;;;9.96;47.06
13604;BME280;24578;48.264;11.436;2023-03-01T14:31:49;96186.97;;;10.07;47.12
13604;BME280;24578;48.264;11.436;2023-03-01T14:34:50;96176.50;;;10.09;47.16
13604;BME280;24578;48.264;11.436;2023-03-01T14:37:51;96181.38;;;9.63;48.58
13604;BME280;24578;48.264;11.436;2023-03-01T14:40:58;96173.25;;;9.31;50.12
13604;BME280;24578;48.264;11.436;2023-03-01T14:44:02;96163.34;;;8.98;50.63
13604;BME280;24578;48.264;11.436;2023-03-01T14:47:04;96159.00;;;9.12;51.13
13604;BME280;24578;48.264;11.436;2023-03-01T14:50:09;96158.56;;;9.31;50.62
13604;BME280;24578;48.264;11.436;2023-03-01T14:53:24;96145.25;;;9.74;48.83
13604;BME280;24578;48.264;11.436;2023-03-01T14:56:25;96135.72;;;9.88;48.25
13604;BME280;24578;48.264;11.436;2023-03-01T14:59:25;96143.59;;;9.49;50.12
13604;BME280;24578;48.264;11.436;2023-03-01T15:02:28;96143.72;;;8.83;52.08
13604;BME280;24578;48.264;11.436;2023-03-01T15:05:33;96154.44;;;8.64;53.13
13604;BME280;24578;48.264;11.436;2023-03-01T15:08:35;96146.59;;;8.38;55.42
13604;BME280;24578;48.264;11.436;2023-03-01T15:11:37;96147.75;;;8.06;56.83
13604;BME280;24578;48.264;11.436;2023-03-01T15:14:43;96143.63;;;7.76;57.81
13604;BME280;24578;48.264;11.436;2023-03-01T15:17:43;96153.69;;;7.52;59.97
13604;BME280;24578;48.264;11.436;2023-03-01T15:20:45;96152.56;;;7.42;61.07
13604;BME280;24578;48.264;11.436;2023-03-01T15:23:49;96159.03;;;7.35;62.13
13604;BME280;24578;48.264;11.436;2023-03-01T15:26:59;96154.06;;;7.31;62.16
13604;BME280;24578;48.264;11.436;2023-03-01T15:30:06;96163.34;;;7.05;64.32
13604;BME280;24578;48.264;11.436;2023-03-01T15:33:28;96155.34;;;6.95;64.98
13604;BME280;24578;48.264;11.436;2023-03-01T15:36:31;96151.94;;;6.95;65.73
13604;BME280;24578;48.264;11.436;2023-03-01T15:39:43;96148.53;;;6.94;66.14
13604;BME280;24578;48.264;11.436;2023-03-01T15:42:52;96147.25;;;6.87;67.88
13604;BME280;24578;48.264;11.436;2023-03-01T15:45:57;96156.91;;;6.83;68.87
13604;BME280;24578;48.264;11.436;2023-03-01T15:49:02;96142.28;;;6.84;69.16
13604;BME280;24578;48.264;11.436;2023-03-01T15:52:06;96148.06;;;6.73;70.20
13604;BME280;24578;48.264;11.436;2023-03-01T15:55:25;96142.72;;;6.76;70.36
13604;BME280;24578;48.264;11.436;2023-03-01T15:58:30;96138.94;;;6.67;72.14
13604;BME280;24578;48.264;11.436;2023-03-01T16:01:30;96134.81;;;6.65;72.74
13604;BME280;24578;48.264;11.436;2023-03-01T16:04:31;96141.06;;;6.61;73.21
13604;BME280;24578;48.264;11.436;2023-03-01T16:07:31;96142.13;;;6.57;74.64
13604;BME280;24578;48.264;11.436;2023-03-01T16:10:33;96137.19;;;6.53;74.87
13604;BME280;24578;48.264;11.436;2023-03-01T16:13:34;96141.03;;;6.46;76.26
13604;BME280;24578;48.264;11.436;2023-03-01T16:16:34;96137.41;;;6.34;77.74
13604;BME280;24578;48.264;11.436;2023-03-01T16:19:37;96135.66;;;6.35;78.91
13604;BME280;24578;48.264;11.436;2023-03-01T16:22:37;96136.09;;;6.27;79.40
13604;BME280;24578;48.264;11.436;2023-03-01T16:25:38;96141.94;;;6.15;81.28
13604;BME280;24578;48.264;11.436;2023-03-01T16:28:40;96143.09;;;6.09;81.98
13604;BME280;24578;48.264;11.436;2023-03-01T16:31:41;96140.63;;;6.07;83.89
13604;BME280;24578;48.264;11.436;2023-03-01T16:34:41;96137.63;;;5.99;84.84
13604;BME280;24578;48.264;11.436;2023-03-01T16:37:42;96145.59;;;5.78;86.84
13604;BME280;24578;48.264;11.436;2023-03-01T16:40:47;96145.16;;;5.70;88.29
13604;BME280;24578;48.264;11.436;2023-03-01T16:43:49;96153.47;;;5.59;89.91
13604;BME280;24578;48.264;11.436;2023-03-01T16:46:50;96143.66;;;5.50;90.76
13604;BME280;24578;48.264;11.436;2023-03-01T16:49:52;96141.44;;;5.44;92.10
13604;BME280;24578;48.264;11.436;2023-03-01T16:52:53;96147.66;;;5.40;93.50
13604;BME280;24578;48.264;11.436;2023-03-01T16:55:58;96151.53;;;5.31;95.32
13604;BME280;24578;48.264;11.436;2023-03-01T16:58:59;96140.25;;;5.17;97.56
13604;BME280;24578;48.264;11.436;2023-03-01T17:01:59;96153.47;;;5.10;99.47
13604;BME280;24578;48.264;11.436;2023-03-01T17:05:01;96156.69;;;4.97;99.81
13604;BME280;24578;48.264;11.436;2023-03-01T17:08:02;96162.50;;;4.83;100.00
13604;BME280;24578;48.264;11.436;2023-03-01T17:11:08;96155.84;;;4.79;100.00
13604;BME280;24578;48.264;11.436;2023-03-01T17:14:09;96162.66;;;4.80;100.00
13604;BME280;24578;48.264;11.436;2023-03-01T17:17:10;96179.94;;;4.59;100.00
13604;BME280;24578;48.264;11.436;2023-03-01T17:20:11;96185.66;;;4.64;100.00
13604;BME280;24578;48.264;11.436;2023-03-01T17:23:12;96195.94;;;4.64;100.00
13604;BME280;24578;48.264;11.436;2023-03-01T17:26:13;96191.75;;;4.62;100.00